Time;durP1;ratioP1;P1;durP2;ratioP2;P2;SDS_P1;SDS_P2;PMS_P1;PMS_P2;Temp;Humidity;BMP_temperature;BMP_pressure;BME280_temperature;BME280_humidity;BME280_pressure;Samples;Min_cycle;Max_cycle;Signal;HPM_P1;HPM_P2
2023/03/13 00:01:34;;;;;;;9.20;3.90;;;;;;;3.64;64.81;98599.07;273867;1257;22412;-84
2023/03/13 00:07:56;;;;;;;6.40;3.50;;;;;;;3.71;65.38;98602.83;273454;1255;22942;-84
2023/03/13 00:14:18;;;;;;;6.70;3.10;;;;;;;3.78;66.10;98604.91;273507;1256;22384;-84
2023/03/13 00:20:19;;;;;;;6.10;3.30;;;;;;;3.83;66.34;98611.95;271932;1269;22593;-84
2023/03/13 00:26:41;;;;;;;9.40;3.20;;;;;;;3.96;66.93;98617.70;269290;1270;23748;-83
2023/03/13 00:32:47;;;;;;;6.40;2.80;;;;;;;4.08;67.79;98602.43;269369;1263;22677;-84
2023/03/13 00:38:50;;;;;;;6.40;3.30;;;;;;;4.16;68.37;98596.31;269251;1259;22403;-83
2023/03/13 00:44:51;;;;;;;4.70;2.70;;;;;;;4.27;68.40;98584.03;270750;1269;22323;-84
2023/03/13 00:50:53;;;;;;;4.60;2.80;;;;;;;4.31;68.75;98569.45;273155;1260;22200;-83
2023/03/13 00:56:55;;;;;;;5.10;2.80;;;;;;;4.30;69.05;98564.72;269533;1269;22535;-83
2023/03/13 01:02:56;;;;;;;5.60;3.40;;;;;;;4.29;69.47;98554.77;269343;1269;23276;-83
2023/03/13 01:08:58;;;;;;;6.90;3.70;;;;;;;4.28;69.59;98552.34;270033;1270;24375;-84
2023/03/13 01:15:05;;;;;;;;;;;;;;;4.25;70.50;98553.41;270886;1269;23272;-84
2023/03/13 01:21:06;;;;;;;4.50;2.80;;;;;;;4.21;70.84;98550.59;270558;1269;22929;-83
2023/03/13 01:27:08;;;;;;;9.00;4.20;;;;;;;4.20;70.71;98545.51;270216;1270;22651;-83
2023/03/13 01:33:10;;;;;;;7.70;3.80;;;;;;;4.20;70.91;98537.46;268972;1269;22498;-82
2023/03/13 01:39:11;;;;;;;4.60;3.10;;;;;;;4.20;71.51;98535.85;269030;1261;22586;-83
2023/03/13 01:45:51;;;;;;;5.20;3.20;;;;;;;4.16;72.11;98542.32;269715;1270;22652;-82
2023/03/13 01:52:37;;;;;;;5.70;3.20;;;;;;;4.15;72.78;98545.45;269614;1269;22446;-84
2023/03/13 01:59:07;;;;;;;6.00;2.80;;;;;;;4.15;73.11;98547.09;273358;1269;22359;-84
2023/03/13 02:05:09;;;;;;;5.60;3.20;;;;;;;4.17;73.31;98554.35;272581;1269;22197;-83
2023/03/13 02:11:46;;;;;;;5.70;3.20;;;;;;;4.21;73.57;98560.48;273256;1270;22259;-83
2023/03/13 02:17:49;;;;;;;7.70;3.10;;;;;;;4.25;73.99;98562.48;273126;1269;22239;-83
2023/03/13 02:24:30;;;;;;;4.90;2.80;;;;;;;4.27;74.82;98564.02;273053;1259;22219;-83
2023/03/13 02:31:12;;;;;;;5.80;2.80;;;;;;;4.27;75.00;98572.81;273247;1277;22236;-83
2023/03/13 02:37:15;;;;;;;5.20;3.00;;;;;;;4.28;75.15;98579.96;272059;1269;23354;-84
2023/03/13 02:44:00;;;;;;;5.40;4.00;;;;;;;4.30;75.33;98587.16;269824;1270;22557;-84
2023/03/13 02:50:10;;;;;;;5.00;2.70;;;;;;;4.33;75.40;98600.48;268972;1270;22508;-83
2023/03/13 02:56:33;;;;;;;5.60;3.00;;;;;;;4.35;75.67;98602.62;269713;1269;24376;-83
2023/03/13 03:02:35;;;;;;;4.50;2.50;;;;;;;4.37;76.36;98609.17;270010;1271;22401;-84
2023/03/13 03:08:46;;;;;;;6.70;2.80;;;;;;;4.41;76.71;98614.73;269760;1269;22614;-83
2023/03/13 03:14:48;;;;;;;3.80;2.80;;;;;;;4.48;76.79;98610.66;269107;1270;22413;-84
2023/03/13 03:21:07;;;;;;;3.90;2.30;;;;;;;4.55;77.08;98609.27;272971;1270;22415;-84
2023/03/13 03:27:36;;;;;;;5.70;3.00;;;;;;;4.64;77.05;98611.45;273096;1272;22883;-84
2023/03/13 03:33:41;;;;;;;7.00;2.80;;;;;;;4.75;77.10;98612.45;269819;1269;22567;-84
2023/03/13 03:39:45;;;;;;;6.40;2.90;;;;;;;4.83;77.40;98609.25;272846;1269;22273;-85
2023/03/13 03:46:08;;;;;;;8.00;3.60;;;;;;;4.92;77.89;98602.98;272747;1270;22415;-83
2023/03/13 03:52:10;;;;;;;5.60;3.60;;;;;;;4.98;78.03;98601.23;271406;1270;22212;-84
2023/03/13 03:58:13;;;;;;;6.30;3.50;;;;;;;5.03;78.45;98611.04;269387;1270;25502;-84
2023/03/13 04:04:38;;;;;;;6.00;3.90;;;;;;;5.07;78.87;98604.55;271209;1265;22203;-83
2023/03/13 04:11:12;;;;;;;6.50;3.80;;;;;;;5.08;79.22;98605.91;271395;1269;22415;-84
2023/03/13 04:17:17;;;;;;;6.70;4.40;;;;;;;5.11;79.72;98602.73;272755;1269;22457;-84
2023/03/13 04:23:20;;;;;;;6.40;3.40;;;;;;;5.12;79.89;98604.70;269964;1270;22565;-82
2023/03/13 04:29:42;;;;;;;7.00;3.80;;;;;;;5.12;80.16;98608.64;269339;1271;22548;-83
2023/03/13 04:36:02;;;;;;;5.60;3.40;;;;;;;5.14;80.47;98617.21;270464;1270;22514;-83
2023/03/13 04:42:25;;;;;;;6.00;3.70;;;;;;;5.15;80.73;98610.36;271064;1269;22416;-83
2023/03/13 04:49:13;;;;;;;5.50;3.40;;;;;;;5.16;81.22;98604.72;272694;1269;22889;-83
2023/03/13 04:55:44;;;;;;;7.90;3.30;;;;;;;5.18;81.42;98609.64;270411;1269;22414;-84
2023/03/13 05:02:05;;;;;;;6.20;4.00;;;;;;;5.21;81.72;98610.05;270796;1269;22765;-84
2023/03/13 05:08:19;;;;;;;5.50;3.20;;;;;;;5.25;82.14;98603.45;271642;1256;22321;-84
2023/03/13 05:14:39;;;;;;;6.00;3.60;;;;;;;5.31;82.45;98603.31;272833;1269;83513;-83
2023/03/13 05:21:17;;;;;;;9.20;4.00;;;;;;;5.37;82.51;98595.93;273417;1259;22377;-84
2023/03/13 05:27:48;;;;;;;6.40;3.60;;;;;;;5.41;82.79;98592.38;273461;1269;22610;-80
2023/03/13 05:34:13;;;;;;;8.50;4.40;;;;;;;5.40;83.17;98586.33;270699;1269;25401;-82
2023/03/13 05:40:37;;;;;;;8.00;4.30;;;;;;;5.49;83.17;98581.35;270541;1265;22523;-86
2023/03/13 05:47:26;;;;;;;8.30;4.30;;;;;;;5.58;83.65;98575.14;270548;1269;22330;-83
2023/03/13 05:53:48;;;;;;;10.00;4.30;;;;;;;5.71;83.83;98571.95;270854;1263;22563;-83
2023/03/13 06:00:08;;;;;;;7.50;4.30;;;;;;;5.83;84.21;98576.05;269780;1269;23404;-83
2023/03/13 06:06:36;;;;;;;11.50;4.50;;;;;;;5.99;84.48;98580.55;272733;1271;22283;-84
2023/03/13 06:12:51;;;;;;;12.20;4.10;;;;;;;6.14;84.52;98578.72;270797;1269;22559;-83
2023/03/13 06:19:14;;;;;;;8.70;4.40;;;;;;;6.27;84.80;98568.11;271869;1266;22481;-83
2023/03/13 06:25:42;;;;;;;10.00;4.40;;;;;;;6.37;84.86;98569.95;273364;1269;22207;-84
2023/03/13 06:31:44;;;;;;;13.10;5.50;;;;;;;6.50;84.79;98568.18;273159;1270;22302;-83
2023/03/13 06:38:06;;;;;;;9.10;4.00;;;;;;;6.64;84.88;98570.73;273428;1266;22365;-83
2023/03/13 06:44:08;;;;;;;10.10;4.60;;;;;;;6.82;84.85;98569.21;273222;1263;22291;-83
2023/03/13 06:50:10;;;;;;;9.60;5.00;;;;;;;7.08;85.30;98559.89;273277;1268;22448;-84
2023/03/13 06:56:11;;;;;;;11.20;4.30;;;;;;;7.58;85.32;98559.81;271513;1260;22217;-84
2023/03/13 07:02:14;;;;;;;17.50;6.00;;;;;;;8.01;84.53;98556.27;273002;1269;22368;-83
2023/03/13 07:08:16;;;;;;;16.70;6.90;;;;;;;8.31;84.22;98549.52;273418;1270;22303;-84
2023/03/13 07:14:24;;;;;;;14.70;5.40;;;;;;;8.59;83.95;98543.80;272568;1263;22224;-82
2023/03/13 07:20:26;;;;;;;13.60;5.20;;;;;;;8.89;83.51;98541.48;271989;1272;22697;-83
2023/03/13 07:26:38;;;;;;;9.50;4.00;;;;;;;9.13;83.00;98541.49;271599;1270;24320;-84
2023/03/13 07:33:01;;;;;;;12.70;3.50;;;;;;;9.35;82.57;98535.36;272882;1265;22213;-83
2023/03/13 07:39:24;;;;;;;10.20;3.60;;;;;;;9.65;82.23;98527.48;273180;1263;22248;-85
2023/03/13 07:45:51;;;;;;;12.50;3.90;;;;;;;10.12;81.87;98513.66;273130;1270;23487;-84
2023/03/13 07:52:20;;;;;;;11.30;4.70;;;;;;;10.53;80.86;98500.95;272287;1270;22477;-85
2023/03/13 07:58:31;;;;;;;9.00;4.60;;;;;;;10.97;80.47;98495.88;273400;1270;22170;-83
2023/03/13 08:04:32;;;;;;;13.40;4.70;;;;;;;11.33;79.23;98493.73;271759;1270;23087;-84
2023/03/13 08:10:35;;;;;;;11.60;3.80;;;;;;;11.20;78.17;98497.17;273268;1260;22398;-84
2023/03/13 08:16:57;;;;;;;6.90;2.80;;;;;;;10.93;77.90;98496.13;270299;1261;22530;-83
2023/03/13 08:23:01;;;;;;;10.00;4.40;;;;;;;10.76;77.67;98496.87;270527;1269;23296;-83
2023/03/13 08:29:43;;;;;;;7.70;3.50;;;;;;;10.73;77.11;98493.10;269786;1266;22598;-84
2023/03/13 08:36:23;;;;;;;10.50;3.80;;;;;;;10.93;76.49;98484.77;269774;1264;25304;-83
2023/03/13 08:42:43;;;;;;;11.60;3.80;;;;;;;11.36;76.56;98483.45;270080;1272;22529;-84
2023/03/13 08:48:52;;;;;;;10.10;3.60;;;;;;;11.76;75.17;98477.73;273224;1271;22605;-83
2023/03/13 08:54:54;;;;;;;8.40;2.60;;;;;;;11.99;74.46;98468.76;269972;1270;22598;-84
2023/03/13 09:01:29;;;;;;;9.20;3.10;;;;;;;12.88;74.63;98457.79;270131;1270;24380;-84
2023/03/13 09:07:31;;;;;;;9.00;2.80;;;;;;;14.20;71.57;98444.02;270003;1269;22544;-84
2023/03/13 09:13:50;;;;;;;10.50;3.00;;;;;;;14.98;68.26;98445.35;270911;1259;23608;-83
2023/03/13 09:20:26;;;;;;;4.90;1.90;;;;;;;15.45;64.27;98436.10;272096;1270;22896;-84
2023/03/13 09:27:05;;;;;;;9.40;2.40;;;;;;;15.45;62.95;98434.69;272566;1272;22483;-84
2023/03/13 09:33:07;;;;;;;7.60;2.60;;;;;;;15.44;61.49;98431.17;272248;1270;22636;-85
2023/03/13 09:39:11;;;;;;;6.30;2.50;;;;;;;15.65;60.07;98426.77;272378;1260;22396;-84
2023/03/13 09:45:32;;;;;;;7.20;2.20;;;;;;;15.99;60.30;98422.98;272080;1263;22407;-85
2023/03/13 09:51:41;;;;;;;7.50;2.60;;;;;;;16.56;59.20;98422.67;271935;1270;23877;-85
2023/03/13 09:57:52;;;;;;;5.60;2.00;;;;;;;17.25;58.05;98413.95;272454;1260;22459;-86
2023/03/13 10:04:00;;;;;;;5.90;2.50;;;;;;;17.78;54.75;98397.56;272221;1271;22425;-84
2023/03/13 10:10:09;;;;;;;7.00;1.70;;;;;;;17.94;54.16;98382.34;272210;1270;22340;-84
2023/03/13 10:16:46;;;;;;;5.30;1.80;;;;;;;18.28;52.91;98371.70;272138;1267;22424;-85
2023/03/13 10:22:51;;;;;;;5.70;2.00;;;;;;;18.68;51.43;98357.81;272476;1262;22976;-86
2023/03/13 10:28:55;;;;;;;9.00;2.30;;;;;;;18.98;49.90;98354.95;272428;1270;22907;-86
2023/03/13 10:35:01;;;;;;;4.50;1.50;;;;;;;18.97;47.10;98359.80;272149;1270;22473;-85
2023/03/13 10:41:06;;;;;;;;;;;;;;;18.74;48.63;98354.23;272547;1269;23871;-84
2023/03/13 10:47:22;;;;;;;4.40;1.60;;;;;;;18.81;47.00;98342.35;272372;1270;22454;-84
2023/03/13 10:53:35;;;;;;;7.90;1.60;;;;;;;18.38;46.54;98330.73;272393;1269;23213;-83
2023/03/13 10:59:59;;;;;;;5.20;1.80;;;;;;;18.43;45.17;98331.05;272274;1269;22386;-86
2023/03/13 11:06:02;;;;;;;7.60;1.60;;;;;;;17.88;43.43;98334.30;272240;1270;23559;-85
2023/03/13 11:12:13;;;;;;;4.80;1.70;;;;;;;17.24;44.02;98323.65;272357;1270;22369;-85
2023/03/13 11:18:54;;;;;;;6.20;1.30;;;;;;;17.05;44.72;98307.92;271924;1269;22436;-85
2023/03/13 11:25:11;;;;;;;4.00;1.20;;;;;;;16.74;44.39;98302.23;271915;1263;23865;-85
2023/03/13 11:31:30;;;;;;;4.10;1.10;;;;;;;16.30;44.86;98294.19;271482;1270;23244;-85
2023/03/13 11:37:34;;;;;;;5.70;1.20;;;;;;;16.06;44.32;98288.27;272084;1270;22472;-85
2023/03/13 11:44:06;;;;;;;2.60;1.20;;;;;;;15.85;44.75;98276.83;272821;1259;22487;-85
2023/03/13 11:51:04;;;;;;;7.80;1.30;;;;;;;15.75;44.89;98265.83;273376;1272;22192;-83
2023/03/13 11:58:10;;;;;;;3.50;1.00;;;;;;;15.70;44.66;98258.69;273112;1269;23180;-83
2023/03/13 12:05:03;;;;;;;3.60;1.10;;;;;;;15.34;44.21;98243.47;271671;1270;24367;-83
2023/03/13 12:12:03;;;;;;;3.60;0.90;;;;;;;15.08;44.15;98230.36;273663;1276;22306;-84
2023/03/13 12:19:04;;;;;;;1.90;0.90;;;;;;;14.90;44.08;98222.81;272958;1270;22332;-84
2023/03/13 12:25:43;;;;;;;2.70;0.90;;;;;;;14.76;44.00;98194.48;272545;1269;23687;-84
2023/03/13 12:32:23;;;;;;;1.80;1.20;;;;;;;14.69;44.09;98191.17;272939;1270;22409;-83
2023/03/13 12:39:02;;;;;;;3.10;1.00;;;;;;;14.76;44.41;98182.85;273244;1264;22301;-83
2023/03/13 12:45:06;;;;;;;3.80;1.10;;;;;;;14.91;43.88;98166.58;272486;1270;22525;-83
2023/03/13 12:51:23;;;;;;;2.80;1.10;;;;;;;15.10;43.84;98155.33;273101;1269;22215;-84
2023/03/13 12:58:18;;;;;;;3.40;1.10;;;;;;;15.27;43.28;98153.49;273138;1269;23330;-84
2023/03/13 13:05:03;;;;;;;3.70;1.30;;;;;;;15.23;42.65;98147.59;273401;1269;23584;-84
2023/03/13 13:11:37;;;;;;;2.80;1.30;;;;;;;15.18;42.60;98144.13;273446;1261;23128;-83
2023/03/13 13:18:32;;;;;;;2.90;0.90;;;;;;;15.07;42.71;98150.84;272146;1269;22311;-85
2023/03/13 13:25:47;;;;;;;2.40;1.10;;;;;;;14.99;42.99;98153.18;273245;1269;23113;-85
2023/03/13 13:32:05;;;;;;;;;;;;;;;;;;;;;
2023/03/13 13:39:09;;;;;;;4.00;1.10;;;;;;;14.75;43.35;98155.55;273011;1269;22614;-84
2023/03/13 13:46:10;;;;;;;3.90;1.60;;;;;;;14.60;44.09;98154.10;273326;1269;22220;-84
2023/03/13 13:52:18;;;;;;;1.90;1.10;;;;;;;14.51;44.91;98159.46;272973;1269;22775;-85
2023/03/13 13:58:23;;;;;;;2.60;1.10;;;;;;;14.26;46.00;98158.55;272273;1269;22692;-84
2023/03/13 14:04:52;;;;;;;4.80;1.30;;;;;;;13.87;47.26;98154.44;270729;1270;22605;-84
2023/03/13 14:11:35;;;;;;;4.70;1.30;;;;;;;13.32;49.32;98154.35;271493;1264;25626;-84
2023/03/13 14:18:17;;;;;;;3.00;1.60;;;;;;;12.75;52.29;98154.79;270742;1269;22635;-84
2023/03/13 14:24:19;;;;;;;2.90;1.10;;;;;;;12.35;54.91;98140.92;271580;1262;22436;-84
2023/03/13 14:31:01;;;;;;;3.80;2.00;;;;;;;12.20;55.46;98144.98;270518;1266;22655;-84
2023/03/13 14:37:49;;;;;;;6.00;2.10;;;;;;;12.08;56.03;98139.52;271100;1267;22656;-83
2023/03/13 14:43:50;;;;;;;3.00;1.70;;;;;;;11.97;56.85;98130.30;270446;1269;22576;-83
2023/03/13 14:50:35;;;;;;;2.20;1.50;;;;;;;11.87;57.20;98123.87;270332;1263;22443;-84
2023/03/13 14:57:21;;;;;;;4.90;2.10;;;;;;;11.78;57.95;98124.27;270091;1270;26309;-85
2023/03/13 15:03:31;;;;;;;4.40;2.30;;;;;;;11.71;58.30;98118.44;269945;1262;22634;-83
2023/03/13 15:10:13;;;;;;;5.10;2.40;;;;;;;11.65;59.03;98117.21;270654;1270;22525;-83
2023/03/13 15:16:35;;;;;;;4.50;2.20;;;;;;;11.63;59.28;98108.99;270406;1269;22412;-83
2023/03/13 15:22:39;;;;;;;5.50;2.40;;;;;;;11.61;59.80;98108.63;270329;1270;23474;-84
2023/03/13 15:28:46;;;;;;;7.90;2.60;;;;;;;11.52;60.57;98108.19;271025;1259;78701;-89
2023/03/13 15:34:51;;;;;;;3.50;1.70;;;;;;;11.36;61.68;98101.48;273288;1277;22272;-83
2023/03/13 15:41:13;;;;;;;3.30;1.70;;;;;;;11.21;62.37;98100.48;273440;1269;22289;-83
2023/03/13 15:47:19;;;;;;;4.50;2.50;;;;;;;11.16;62.95;98084.00;273415;1269;23554;-84
2023/03/13 15:53:57;;;;;;;5.60;3.00;;;;;;;11.09;63.63;98078.39;271038;1269;22214;-84
2023/03/13 16:00:05;;;;;;;4.20;2.40;;;;;;;11.05;63.87;98079.13;272680;1266;22215;-83
2023/03/13 16:06:29;;;;;;;5.00;2.40;;;;;;;11.04;64.24;98077.41;273292;1269;22993;-83
2023/03/13 16:12:53;;;;;;;4.00;2.40;;;;;;;11.03;64.50;98080.85;273170;1269;22545;-83
2023/03/13 16:18:56;;;;;;;5.10;2.70;;;;;;;11.02;64.38;98084.00;272427;1260;22559;-84
2023/03/13 16:24:58;;;;;;;7.20;3.10;;;;;;;11.01;64.61;98085.73;272259;1269;22596;-84
2023/03/13 16:30:59;;;;;;;3.40;2.20;;;;;;;10.99;64.94;98092.00;273061;1257;23151;-83
2023/03/13 16:37:17;;;;;;;4.00;2.30;;;;;;;10.94;65.20;98080.92;273318;1269;22597;-83
2023/03/13 16:43:19;;;;;;;;;;;;;;;10.93;65.36;98077.16;272109;1269;22581;-83
2023/03/13 16:49:21;;;;;;;4.70;2.60;;;;;;;10.90;65.50;98080.54;271014;1270;23502;-83
2023/03/13 16:55:27;;;;;;;6.10;2.50;;;;;;;10.87;65.52;98084.53;271142;1269;22542;-83
2023/03/13 17:01:29;;;;;;;6.80;2.80;;;;;;;10.83;65.92;98071.42;272659;1269;22681;-83
2023/03/13 17:07:31;;;;;;;9.80;3.10;;;;;;;10.80;66.10;98062.21;271183;1267;23278;-82
2023/03/13 17:13:33;;;;;;;5.40;2.70;;;;;;;10.77;66.12;98049.38;272816;1264;330670;-83
2023/03/13 17:19:41;;;;;;;8.00;3.60;;;;;;;10.73;66.41;98040.02;273643;1272;22306;-83
2023/03/13 17:25:54;;;;;;;6.50;3.10;;;;;;;10.62;66.45;98024.43;273193;1269;22487;-84
2023/03/13 17:31:57;;;;;;;8.30;3.60;;;;;;;10.51;66.68;98020.57;273500;1262;22223;-83
2023/03/13 17:37:59;;;;;;;6.60;3.50;;;;;;;10.44;66.87;98021.23;273805;1269;22267;-83
2023/03/13 17:44:56;;;;;;;7.40;3.70;;;;;;;10.33;66.93;98020.79;273830;1276;22985;-83
2023/03/13 17:51:01;;;;;;;6.20;3.70;;;;;;;10.18;67.24;98008.58;273783;1275;22217;-82
2023/03/13 17:57:13;;;;;;;7.20;3.80;;;;;;;10.04;67.69;98008.05;273666;1273;22313;-83
2023/03/13 18:03:28;;;;;;;8.60;3.70;;;;;;;10.00;68.18;97990.95;273421;1277;22275;-83
2023/03/13 18:09:30;;;;;;;9.00;3.90;;;;;;;9.99;68.48;97985.10;273884;1275;22218;-83
2023/03/13 18:15:52;;;;;;;9.20;3.80;;;;;;;10.08;68.21;97981.10;273562;1268;22198;-83
2023/03/13 18:21:55;;;;;;;10.30;4.90;;;;;;;10.21;67.97;97967.46;271685;1269;22659;-83
2023/03/13 18:27:58;;;;;;;7.90;4.00;;;;;;;10.26;67.66;97950.24;273490;1269;22265;-83
2023/03/13 18:34:41;;;;;;;10.90;3.40;;;;;;;10.25;67.55;97936.89;272652;1269;22220;-83
2023/03/13 18:41:07;;;;;;;9.70;5.50;;;;;;;10.33;66.94;97915.52;271424;1269;22197;-83
2023/03/13 18:47:29;;;;;;;11.00;5.80;;;;;;;10.37;66.62;97906.66;273654;1269;22261;-84
2023/03/13 18:53:51;;;;;;;7.60;4.20;;;;;;;10.30;66.42;97888.18;273704;1259;22238;-84
2023/03/13 18:59:53;;;;;;;10.30;4.90;;;;;;;10.18;66.38;97859.17;266014;1267;10002117;-83
2023/03/13 19:05:56;;;;;;;11.60;4.80;;;;;;;10.06;66.56;97855.47;273717;1269;22239;-83
2023/03/13 19:11:58;;;;;;;11.30;5.40;;;;;;;9.86;66.82;97859.99;273590;1270;23095;-83
2023/03/13 19:18:50;;;;;;;10.90;6.00;;;;;;;9.53;66.96;97853.64;273388;1269;22171;-84
2023/03/13 19:25:38;;;;;;;20.60;9.20;;;;;;;9.28;67.59;97847.47;273713;1272;22328;-83
2023/03/13 19:32:20;;;;;;;22.70;11.60;;;;;;;8.99;68.16;97848.68;273341;1267;22235;-84
2023/03/13 19:38:42;;;;;;;17.90;9.20;;;;;;;8.68;68.80;97844.73;273548;1269;22318;-83
2023/03/13 19:44:54;;;;;;;16.60;8.80;;;;;;;8.41;69.42;97848.83;273719;1276;22325;-83
2023/03/13 19:50:56;;;;;;;20.30;11.00;;;;;;;8.04;69.67;97848.95;273700;1276;22278;-84
2023/03/13 19:57:00;;;;;;;22.90;11.00;;;;;;;7.76;70.31;97844.35;273616;1270;22206;-83
2023/03/13 20:03:08;;;;;;;31.10;15.30;;;;;;;7.62;71.08;97843.75;271962;1269;22654;-84
2023/03/13 20:09:37;;;;;;;30.30;14.10;;;;;;;7.57;71.40;97843.33;271337;1259;22428;-83
2023/03/13 20:15:39;;;;;;;42.30;16.50;;;;;;;7.54;71.40;97844.80;270897;1269;22553;-83
2023/03/13 20:21:41;;;;;;;116.10;37.80;;;;;;;7.39;71.71;97846.05;271228;1269;22204;-83
2023/03/13 20:27:46;;;;;;;90.60;32.50;;;;;;;7.31;71.82;97831.23;271127;1265;25322;-84
2023/03/13 20:34:09;;;;;;;68.20;24.50;;;;;;;7.25;72.22;97824.13;271033;1269;22577;-83
2023/03/13 20:40:11;;;;;;;23.70;12.00;;;;;;;7.07;72.43;97816.63;270580;1269;22599;-84
2023/03/13 20:46:13;;;;;;;28.10;10.90;;;;;;;6.89;72.93;97814.56;271442;1269;22199;-84
2023/03/13 20:52:15;;;;;;;28.40;12.80;;;;;;;6.72;73.36;97814.22;270801;1269;22639;-84
2023/03/13 20:58:19;;;;;;;28.40;13.70;;;;;;;6.63;73.75;97804.13;271280;1269;22468;-84
2023/03/13 21:04:20;;;;;;;29.00;15.50;;;;;;;6.63;73.92;97802.73;271002;1269;22597;-83
2023/03/13 21:10:54;;;;;;;18.20;9.70;;;;;;;6.63;74.26;97791.14;270421;1269;22591;-83
2023/03/13 21:16:56;;;;;;;19.10;9.20;;;;;;;6.64;74.60;97781.60;270963;1267;22328;-83
2023/03/13 21:23:04;;;;;;;16.80;7.80;;;;;;;6.58;74.58;97775.73;272981;1269;22350;-84
2023/03/13 21:29:08;;;;;;;15.80;7.90;;;;;;;6.60;74.74;97762.15;269711;1269;23141;-83
2023/03/13 21:35:30;;;;;;;24.50;10.10;;;;;;;6.67;74.84;97754.42;269900;1269;23715;-83
2023/03/13 21:41:35;;;;;;;16.10;8.00;;;;;;;6.50;74.91;97746.15;270784;1269;22529;-83
2023/03/13 21:47:36;;;;;;;18.10;8.20;;;;;;;6.38;74.98;97738.77;270589;1269;23758;-83
2023/03/13 21:53:58;;;;;;;15.90;7.00;;;;;;;6.21;75.07;97726.84;271409;1259;22712;-83
2023/03/13 22:00:20;;;;;;;11.20;5.90;;;;;;;6.15;75.20;97720.80;273715;1272;22163;-83
2023/03/13 22:06:26;;;;;;;13.20;6.70;;;;;;;6.25;75.64;97708.07;273189;1269;22295;-83
2023/03/13 22:12:48;;;;;;;14.20;6.30;;;;;;;6.33;75.90;97693.77;273016;1269;22830;-83
2023/03/13 22:18:50;;;;;;;19.60;8.90;;;;;;;6.23;76.20;97697.73;271651;1270;23936;-84
2023/03/13 22:24:53;;;;;;;21.20;9.10;;;;;;;6.11;76.53;97701.98;271387;1269;23223;-84
2023/03/13 22:30:54;;;;;;;21.60;8.40;;;;;;;6.08;76.72;97701.50;273524;1269;22636;-85
2023/03/13 22:37:36;;;;;;;17.50;8.40;;;;;;;6.13;76.98;97699.20;271485;1270;22552;-84
2023/03/13 22:43:57;;;;;;;28.10;10.50;;;;;;;6.17;77.61;97709.11;270121;1272;22557;-83
2023/03/13 22:50:13;;;;;;;26.80;10.10;;;;;;;6.18;77.48;97699.88;271753;1260;22342;-84
2023/03/13 22:56:15;;;;;;;33.80;11.70;;;;;;;6.35;77.62;97693.62;273169;1272;23057;-84
2023/03/13 23:02:38;;;;;;;41.60;15.10;;;;;;;6.42;77.50;97685.05;273086;1275;22293;-84
2023/03/13 23:09:21;;;;;;;50.70;19.20;;;;;;;6.51;77.49;97674.15;273146;1261;23015;-84
2023/03/13 23:15:23;;;;;;;78.10;26.20;;;;;;;6.55;77.46;97667.34;272537;1269;22551;-83
2023/03/13 23:21:57;;;;;;;62.90;21.40;;;;;;;6.55;77.35;97658.64;271649;1269;22183;-83
2023/03/13 23:27:59;;;;;;;30.70;11.20;;;;;;;6.52;77.35;97642.08;273751;1269;22313;-84
2023/03/13 23:34:20;;;;;;;22.30;8.40;;;;;;;6.95;77.06;97630.69;273775;1253;23409;-84
2023/03/13 23:40:42;;;;;;;13.90;5.60;;;;;;;7.04;76.61;97634.07;273587;1277;22201;-84
2023/03/13 23:46:45;;;;;;;6.70;3.50;;;;;;;7.15;76.46;97613.96;273772;1269;23174;-84
2023/03/13 23:53:32;;;;;;;8.00;3.40;;;;;;;7.27;75.99;97594.16;273966;1262;22264;-84
